Time;durP1;ratioP1;P1;durP2;ratioP2;P2;SDS_P1;SDS_P2;PMS_P1;PMS_P2;Temp;Humidity;BMP_temperature;BMP_pressure;BME280_temperature;BME280_humidity;BME280_pressure;Samples;Min_cycle;Max_cycle;Signal;HPM_P1;HPM_P2
2023/05/02 00:01:36;;;;;;;9.53;8.73;;;13.10;62.80;;;;;;21195;6626;272328;-79
2023/05/02 00:04:02;;;;;;;7.00;6.40;;;13.30;61.80;;;;;;21377;6640;66215;-79
2023/05/02 00:06:27;;;;;;;7.30;6.70;;;13.20;61.70;;;;;;21240;6615;300768;-79
2023/05/02 00:08:53;;;;;;;18.83;7.67;;;13.40;61.40;;;;;;21368;6640;69479;-79
2023/05/02 00:11:18;;;;;;;8.35;7.62;;;13.30;61.60;;;;;;21230;6615;271406;-79
2023/05/02 00:13:44;;;;;;;7.60;7.20;;;13.40;60.70;;;;;;21154;6640;305406;-79
2023/05/02 00:16:10;;;;;;;6.93;6.43;;;13.60;60.30;;;;;;21456;6615;66426;-79
2023/05/02 00:18:36;;;;;;;7.60;7.20;;;13.50;60.40;;;;;;21208;6626;330190;-79
2023/05/02 00:21:02;;;;;;;6.80;6.20;;;13.50;60.50;;;;;;21451;6615;66022;-79
2023/05/02 00:23:27;;;;;;;8.40;7.90;;;13.40;60.80;;;;;;21156;6640;301440;-79
2023/05/02 00:25:53;;;;;;;58.33;10.07;;;13.40;61.10;;;;;;21470;6615;66037;-79
2023/05/02 00:28:20;;;;;;;86.00;10.82;;;13.50;61.00;;;;;;21239;6615;328954;-79
2023/05/02 00:30:46;;;;;;;241.67;12.83;;;13.50;61.00;;;;;;21456;6615;67038;-79
2023/05/02 00:33:13;;;;;;;186.37;12.47;;;13.30;61.00;;;;;;21382;6640;66623;-79
2023/05/02 00:35:37;;;;;;;250.50;13.63;;;13.10;61.70;;;;;;21242;6613;300147;-79
2023/05/02 00:38:03;;;;;;;804.93;22.97;;;13.20;61.60;;;;;;21163;6640;275966;-79
2023/05/02 00:40:28;;;;;;;360.50;15.65;;;13.40;60.80;;;;;;21225;6614;300547;-79
2023/05/02 00:42:55;;;;;;;840.08;21.50;;;13.90;60.40;;;;;;21159;6640;301740;-79
2023/05/02 00:45:20;;;;;;;403.67;16.23;;;13.90;59.80;;;;;;21456;6615;68350;-79
2023/05/02 00:47:46;;;;;;;403.23;16.30;;;13.70;60.00;;;;;;21381;6640;69952;-79
2023/05/02 00:50:11;;;;;;;388.00;14.65;;;13.30;60.90;;;;;;21224;6615;303107;-80
2023/05/02 00:52:38;;;;;;;304.03;13.70;;;13.20;60.60;;;;;;21461;6615;66383;-79
2023/05/02 00:55:04;;;;;;;551.78;17.10;;;13.20;60.90;;;;;;21163;6640;325827;-79
2023/05/02 00:57:29;;;;;;;278.03;12.87;;;13.30;60.70;;;;;;21453;6615;66616;-79
2023/05/02 00:59:55;;;;;;;417.50;14.35;;;13.10;61.00;;;;;;21213;6615;294184;-79
2023/05/02 01:02:37;;;;;;;258.92;12.85;;;13.20;60.50;;;;;;21363;6640;68397;-79
2023/05/02 01:05:09;;;;;;;360.97;13.80;;;13.10;60.80;;;;;;21220;6615;271743;-80
2023/05/02 01:08:04;;;;;;;392.43;13.73;;;13.20;61.10;;;;;;21136;6640;276934;-79
2023/05/02 01:10:36;;;;;;;376.70;14.07;;;13.40;59.80;;;;;;21230;6615;281481;-79
2023/05/02 01:13:02;;;;;;;490.00;15.43;;;13.60;59.40;;;;;;21103;6640;273556;-79
2023/05/02 01:15:30;;;;;;;127.00;10.55;;;13.50;59.20;;;;;;21438;6615;89250;-79
2023/05/02 01:17:55;;;;;;;149.53;9.93;;;13.40;59.10;;;;;;21380;6640;66947;-79
2023/05/02 01:20:21;;;;;;;143.37;10.15;;;12.80;61.50;;;;;;21443;6615;68937;-79
2023/05/02 01:22:47;;;;;;;120.67;9.63;;;12.80;61.50;;;;;;21377;6640;66222;-79
2023/05/02 01:25:15;;;;;;;98.40;8.15;;;12.60;62.40;;;;;;21379;6615;66203;-79
2023/05/02 01:28:07;;;;;;;79.87;8.03;;;12.20;63.40;;;;;;21333;6640;73470;-79
2023/05/02 01:30:34;;;;;;;155.83;9.80;;;12.20;63.60;;;;;;21224;6615;303887;-79
2023/05/02 01:33:00;;;;;;;120.17;9.70;;;12.50;62.40;;;;;;21129;6640;276177;-79
2023/05/02 01:35:26;;;;;;;55.60;8.10;;;12.80;61.30;;;;;;21448;6615;66754;-79
2023/05/02 01:37:52;;;;;;;148.20;10.60;;;12.80;61.50;;;;;;21231;6615;332908;-79
2023/05/02 01:40:18;;;;;;;37.47;9.10;;;13.10;60.50;;;;;;21132;6640;301149;-79
2023/05/02 01:42:44;;;;;;;326.20;14.13;;;13.10;60.50;;;;;;21216;6615;300241;-79
2023/05/02 01:45:09;;;;;;;367.25;15.93;;;13.40;59.50;;;;;;21220;6615;302686;-80
2023/05/02 01:47:34;;;;;;;211.20;14.07;;;13.50;59.20;;;;;;21371;6639;66684;-79
2023/05/02 01:50:00;;;;;;;671.83;21.08;;;13.30;59.80;;;;;;21247;6614;329411;-79
2023/05/02 01:52:26;;;;;;;387.30;16.97;;;13.30;60.00;;;;;;21143;6640;307741;-79
2023/05/02 01:54:51;;;;;;;234.43;14.90;;;13.50;59.40;;;;;;21448;6615;67343;-79
2023/05/02 01:57:17;;;;;;;318.55;15.65;;;13.40;60.00;;;;;;21145;6640;329719;-81
2023/05/02 01:59:42;;;;;;;630.60;21.97;;;13.40;60.10;;;;;;21230;6615;274814;-81
2023/05/02 02:02:08;;;;;;;42.57;8.77;;;13.60;59.50;;;;;;21346;6640;66282;-79
2023/05/02 02:04:33;;;;;;;174.43;13.02;;;13.40;59.90;;;;;;21413;6615;66620;-79
2023/05/02 02:07:02;;;;;;;65.83;11.13;;;13.10;60.80;;;;;;21117;6640;301002;-79
2023/05/02 02:09:28;;;;;;;38.13;8.77;;;13.10;60.60;;;;;;21398;6615;66449;-79
2023/05/02 02:12:16;;;;;;;83.53;11.43;;;13.00;60.90;;;;;;21118;6640;305829;-79
2023/05/02 02:14:42;;;;;;;61.58;11.18;;;13.10;60.60;;;;;;21202;6615;301187;-79
2023/05/02 02:17:11;;;;;;;173.20;14.40;;;13.30;59.40;;;;;;21128;6640;271730;-79
2023/05/02 02:19:37;;;;;;;39.67;9.87;;;13.50;58.70;;;;;;21433;6615;66352;-79
2023/05/02 02:22:04;;;;;;;32.88;10.88;;;13.30;59.30;;;;;;21184;6625;329167;-79
2023/05/02 02:24:30;;;;;;;109.30;12.02;;;13.20;59.40;;;;;;21245;6615;301543;-79
2023/05/02 02:26:56;;;;;;;59.00;11.40;;;13.40;58.80;;;;;;21163;6640;305259;-79
2023/05/02 02:29:21;;;;;;;12.03;8.80;;;13.50;58.40;;;;;;21461;6615;66744;-79
2023/05/02 02:31:47;;;;;;;314.07;16.50;;;13.30;59.10;;;;;;21199;6626;295390;-79
2023/05/02 02:34:12;;;;;;;145.07;12.83;;;13.30;59.10;;;;;;21238;6615;300637;-79
2023/05/02 02:36:38;;;;;;;33.13;9.02;;;13.20;58.90;;;;;;21454;6615;67289;-79
2023/05/02 02:39:27;;;;;;;9.40;8.10;;;13.20;58.90;;;;;;21351;6640;67073;-79
2023/05/02 02:42:13;;;;;;;68.57;9.67;;;12.80;60.00;;;;;;21408;6615;72442;-79
2023/05/02 02:44:51;;;;;;;26.00;7.77;;;12.40;61.20;;;;;;21360;6640;66964;-81
2023/05/02 02:47:23;;;;;;;50.70;9.07;;;12.20;62.20;;;;;;21442;6615;66498;-79
2023/05/02 02:50:12;;;;;;;132.48;12.02;;;12.00;63.00;;;;;;21154;6640;301002;-79
2023/05/02 02:52:58;;;;;;;16.07;7.93;;;12.20;62.10;;;;;;20301;6978;72521;-79
2023/05/02 02:55:37;;;;;;;9.30;8.70;;;12.20;62.10;;;;;;20824;6615;303804;-79
2023/05/02 02:58:24;;;;;;;7.10;6.60;;;12.40;61.90;;;;;;21373;6640;67114;-80
2023/05/02 03:00:51;;;;;;;7.75;7.32;;;12.30;61.70;;;;;;21247;6614;270561;-79
2023/05/02 03:03:18;;;;;;;7.07;6.57;;;12.50;60.60;;;;;;21377;6640;69845;-79
2023/05/02 03:05:43;;;;;;;8.68;8.18;;;12.40;60.70;;;;;;21225;6615;303970;-79
2023/05/02 03:08:09;;;;;;;8.03;7.53;;;12.50;59.20;;;;;;21377;6640;66782;-79
2023/05/02 03:10:34;;;;;;;9.00;8.30;;;12.40;59.50;;;;;;21231;6615;328529;-79
2023/05/02 03:13:00;;;;;;;7.53;7.03;;;12.40;58.30;;;;;;21408;6625;66740;-78
2023/05/02 03:15:54;;;;;;;11.73;11.03;;;12.40;59.00;;;;;;21243;6615;270802;-76
2023/05/02 03:18:18;;;;;;;9.53;9.03;;;12.40;59.00;;;;;;21377;6640;69800;-77
2023/05/02 03:20:44;;;;;;;8.70;8.10;;;12.20;60.10;;;;;;21446;6615;66486;-75
2023/05/02 03:23:10;;;;;;;9.13;8.43;;;12.20;60.30;;;;;;21152;6640;301320;-75
2023/05/02 03:25:36;;;;;;;7.80;7.20;;;12.10;60.20;;;;;;21460;6615;67048;-75
2023/05/02 03:28:01;;;;;;;8.50;8.10;;;12.10;60.50;;;;;;21151;6640;301765;-75
2023/05/02 03:30:27;;;;;;;8.52;8.02;;;12.20;60.30;;;;;;21200;6615;325225;-75
2023/05/02 03:32:53;;;;;;;8.40;7.90;;;12.80;58.40;;;;;;21156;6640;301487;-75
2023/05/02 03:35:19;;;;;;;7.23;6.83;;;12.80;58.40;;;;;;21443;6615;66919;-75
2023/05/02 03:37:44;;;;;;;8.93;8.33;;;12.60;58.70;;;;;;21104;6640;271356;-76
2023/05/02 03:40:10;;;;;;;9.20;8.50;;;12.70;58.50;;;;;;21226;6615;272809;-73
2023/05/02 03:42:40;;;;;;;9.00;8.40;;;12.90;57.70;;;;;;21163;6640;272001;-73
2023/05/02 03:45:04;;;;;;;8.80;8.32;;;13.00;57.50;;;;;;21238;6615;328843;-73
2023/05/02 03:47:30;;;;;;;7.30;6.90;;;13.20;56.70;;;;;;21369;6640;67232;-75
2023/05/02 03:49:56;;;;;;;7.60;6.80;;;13.00;57.50;;;;;;21457;6615;70659;-75
2023/05/02 03:52:23;;;;;;;8.70;8.10;;;12.60;58.60;;;;;;21187;6626;334726;-77
2023/05/02 03:54:48;;;;;;;8.57;8.07;;;12.70;59.20;;;;;;21245;6615;300612;-75
2023/05/02 03:57:14;;;;;;;8.13;7.53;;;13.00;58.30;;;;;;21424;6626;66164;-75
2023/05/02 03:59:44;;;;;;;9.52;8.85;;;12.90;58.70;;;;;;20960;6640;303141;-75
2023/05/02 04:02:15;;;;;;;8.20;7.70;;;12.90;58.90;;;;;;21390;6615;75688;-77
2023/05/02 04:04:42;;;;;;;8.20;7.70;;;12.80;58.70;;;;;;21227;6626;116847;-76
2023/05/02 04:07:08;;;;;;;7.47;7.07;;;12.40;60.50;;;;;;20658;6854;117182;-77
2023/05/02 04:09:32;;;;;;;7.23;6.83;;;12.30;60.40;;;;;;20622;6858;117496;-75
2023/05/02 04:11:59;;;;;;;7.40;7.00;;;12.10;61.80;;;;;;20635;6856;117033;-77
2023/05/02 04:14:26;;;;;;;7.90;7.17;;;12.00;61.80;;;;;;20591;6858;117789;-78
2023/05/02 04:16:51;;;;;;;9.40;8.80;;;12.00;62.30;;;;;;20417;6861;338064;-75
2023/05/02 04:19:17;;;;;;;8.57;8.07;;;12.10;61.00;;;;;;20661;6851;117241;-76
2023/05/02 04:21:42;;;;;;;9.57;9.07;;;12.20;61.10;;;;;;20449;6851;282113;-75
2023/05/02 04:24:08;;;;;;;8.65;8.18;;;12.40;60.60;;;;;;20458;6860;283607;-79
2023/05/02 04:26:33;;;;;;;9.45;8.95;;;12.70;59.80;;;;;;20484;6843;318385;-75
2023/05/02 04:28:59;;;;;;;7.97;7.47;;;13.00;58.70;;;;;;20643;6872;117496;-76
2023/05/02 04:31:25;;;;;;;7.90;7.37;;;12.80;59.00;;;;;;20679;6853;118008;-74
2023/05/02 04:33:50;;;;;;;9.73;9.13;;;12.60;60.00;;;;;;20433;6868;327815;-74
2023/05/02 04:36:16;;;;;;;7.75;7.35;;;12.70;59.50;;;;;;20640;6868;123247;-75
2023/05/02 04:38:42;;;;;;;7.47;6.97;;;12.40;61.20;;;;;;20690;6853;116726;-75
2023/05/02 04:41:08;;;;;;;30.00;10.77;;;12.40;60.60;;;;;;20466;6853;320896;-76
2023/05/02 04:43:33;;;;;;;16.48;10.45;;;12.60;60.20;;;;;;20419;6868;338284;-75
2023/05/02 04:45:59;;;;;;;8.67;8.03;;;12.90;59.30;;;;;;20584;6868;117526;-77
2023/05/02 04:48:25;;;;;;;10.43;9.87;;;12.80;59.60;;;;;;20405;6868;312765;-78
2023/05/02 04:50:52;;;;;;;10.97;10.30;;;12.90;59.40;;;;;;20464;6854;279471;-78
2023/05/02 04:53:17;;;;;;;11.13;10.40;;;13.30;57.90;;;;;;20427;6868;284183;-78
2023/05/02 04:55:45;;;;;;;9.37;8.87;;;13.30;57.90;;;;;;20606;6868;118706;-78
2023/05/02 04:58:11;;;;;;;10.98;10.18;;;13.10;58.40;;;;;;20425;6868;336985;-79
2023/05/02 05:00:37;;;;;;;11.10;10.40;;;13.30;58.10;;;;;;20409;6868;284801;-78
2023/05/02 05:03:03;;;;;;;9.20;8.70;;;13.30;58.20;;;;;;20670;6853;117567;-77
2023/05/02 05:05:28;;;;;;;9.23;8.63;;;13.10;58.60;;;;;;20660;6868;117466;-75
2023/05/02 05:07:54;;;;;;;8.23;7.75;;;12.80;59.60;;;;;;20699;6853;117407;-79
2023/05/02 05:10:19;;;;;;;8.30;7.70;;;12.60;60.60;;;;;;20652;6853;117601;-80
2023/05/02 05:12:45;;;;;;;7.97;7.47;;;12.40;61.50;;;;;;20679;6853;118356;-74
2023/05/02 05:15:11;;;;;;;10.43;9.73;;;12.20;62.10;;;;;;20496;6853;336910;-78
2023/05/02 05:17:36;;;;;;;9.10;8.50;;;12.40;61.70;;;;;;20679;6853;117390;-78
2023/05/02 05:20:02;;;;;;;8.90;8.40;;;12.50;61.80;;;;;;20669;6853;117525;-77
2023/05/02 05:22:27;;;;;;;10.23;9.53;;;12.40;62.30;;;;;;20419;6851;307838;-77
2023/05/02 05:24:53;;;;;;;9.23;8.73;;;12.60;61.30;;;;;;20681;6853;117691;-78
2023/05/02 05:27:19;;;;;;;10.10;9.50;;;12.60;61.40;;;;;;20457;6853;296455;-80
2023/05/02 05:29:44;;;;;;;8.27;7.77;;;12.80;60.50;;;;;;20646;6853;117361;-77
2023/05/02 05:32:10;;;;;;;10.23;9.50;;;12.80;60.80;;;;;;20464;6853;308085;-77
2023/05/02 05:34:36;;;;;;;9.13;8.43;;;13.00;60.20;;;;;;20641;6853;117811;-77
2023/05/02 05:37:02;;;;;;;8.23;7.73;;;13.00;60.60;;;;;;20685;6853;117630;-77
2023/05/02 05:39:27;;;;;;;7.43;7.03;;;12.80;61.30;;;;;;20684;6853;117681;-77
2023/05/02 05:41:53;;;;;;;9.82;9.23;;;12.70;62.00;;;;;;20460;6853;336877;-77
2023/05/02 05:44:20;;;;;;;7.83;7.37;;;12.80;60.80;;;;;;20665;6853;117792;-77
2023/05/02 05:46:44;;;;;;;10.13;9.43;;;12.90;61.10;;;;;;20435;6853;312435;-77
2023/05/02 05:49:11;;;;;;;8.60;8.00;;;13.10;60.90;;;;;;20688;6853;116880;-76
2023/05/02 05:51:36;;;;;;;8.17;7.67;;;13.10;60.90;;;;;;20671;6853;117193;-76
2023/05/02 05:54:02;;;;;;;8.70;8.00;;;13.00;61.50;;;;;;20683;6853;117290;-78
2023/05/02 05:56:27;;;;;;;9.10;8.60;;;12.90;62.20;;;;;;20447;6853;304431;-75
2023/05/02 05:58:53;;;;;;;8.70;8.10;;;13.20;61.40;;;;;;20678;6853;117505;-75
2023/05/02 06:01:18;;;;;;;10.17;9.57;;;13.30;61.50;;;;;;20466;6853;307455;-76
2023/05/02 06:03:44;;;;;;;8.73;8.23;;;13.50;59.80;;;;;;20676;6853;121312;-76
2023/05/02 06:06:10;;;;;;;9.20;8.60;;;13.50;60.10;;;;;;20472;6853;278838;-76
2023/05/02 06:08:36;;;;;;;9.23;8.73;;;13.70;58.90;;;;;;20450;6853;279411;-78
2023/05/02 06:11:01;;;;;;;8.20;7.60;;;14.00;57.80;;;;;;20662;6853;117626;-76
2023/05/02 06:13:28;;;;;;;7.85;7.35;;;13.80;59.60;;;;;;20674;6853;117011;-74
2023/05/02 06:15:53;;;;;;;7.77;7.27;;;13.80;59.60;;;;;;20671;6853;117006;-76
2023/05/02 06:18:19;;;;;;;8.93;8.33;;;13.80;60.50;;;;;;20420;6853;311936;-76
2023/05/02 06:20:45;;;;;;;7.93;7.43;;;14.00;59.80;;;;;;20666;6853;117429;-75
2023/05/02 06:23:11;;;;;;;8.20;7.60;;;14.00;59.30;;;;;;20669;6853;117301;-73
2023/05/02 06:25:36;;;;;;;10.10;9.25;;;14.00;60.00;;;;;;20422;6853;281130;-74
2023/05/02 06:28:02;;;;;;;8.10;7.60;;;14.20;59.20;;;;;;20665;6853;117480;-73
2023/05/02 06:30:27;;;;;;;8.13;7.53;;;14.20;59.40;;;;;;20651;6853;121316;-72
2023/05/02 06:32:54;;;;;;;9.45;8.85;;;14.20;60.00;;;;;;20461;6851;295865;-74
2023/05/02 06:35:19;;;;;;;8.63;7.90;;;14.20;59.20;;;;;;20674;6852;117234;-76
2023/05/02 06:37:45;;;;;;;9.90;9.10;;;14.20;59.40;;;;;;20455;6853;279643;-73
2023/05/02 06:40:11;;;;;;;8.60;7.90;;;14.30;58.80;;;;;;20652;6853;118401;-73
2023/05/02 06:42:36;;;;;;;10.03;9.20;;;14.20;59.00;;;;;;20470;6853;282718;-74
2023/05/02 06:45:03;;;;;;;10.23;9.63;;;14.60;58.70;;;;;;20462;6853;312291;-74
2023/05/02 06:47:28;;;;;;;8.97;8.47;;;14.60;58.30;;;;;;20681;6853;118310;-74
2023/05/02 06:49:54;;;;;;;8.67;7.97;;;14.50;58.70;;;;;;20683;6853;117667;-74
2023/05/02 06:52:19;;;;;;;9.60;9.00;;;14.20;59.60;;;;;;20432;6853;308736;-73
2023/05/02 06:54:45;;;;;;;8.90;8.30;;;14.30;59.10;;;;;;20680;6853;117746;-75
2023/05/02 06:57:10;;;;;;;9.23;8.73;;;14.30;59.50;;;;;;20462;6853;308485;-76
2023/05/02 06:59:36;;;;;;;9.50;9.00;;;14.40;58.70;;;;;;20477;6853;309333;-75
2023/05/02 07:02:02;;;;;;;8.27;7.70;;;14.70;58.50;;;;;;20672;6853;117719;-75
2023/05/02 07:04:28;;;;;;;9.02;8.48;;;14.70;58.50;;;;;;20451;6853;308201;-75
2023/05/02 07:06:54;;;;;;;9.33;8.73;;;14.80;57.90;;;;;;20463;6853;311504;-76
2023/05/02 07:09:20;;;;;;;8.15;7.55;;;15.00;58.20;;;;;;20679;6853;117126;-76
2023/05/02 07:11:46;;;;;;;8.30;7.80;;;15.00;58.20;;;;;;20649;6853;117791;-74
2023/05/02 07:14:13;;;;;;;9.40;8.80;;;14.90;59.20;;;;;;20444;6853;294358;-75
2023/05/02 07:16:38;;;;;;;8.70;8.10;;;15.00;57.90;;;;;;20662;6853;121542;-76
2023/05/02 07:19:05;;;;;;;8.00;7.55;;;15.20;59.00;;;;;;20678;6853;117549;-76
2023/05/02 07:21:31;;;;;;;8.70;7.97;;;15.20;60.30;;;;;;20670;6853;117272;-75
2023/05/02 07:23:56;;;;;;;7.40;7.00;;;15.20;60.30;;;;;;20685;6853;117746;-74
2023/05/02 07:26:22;;;;;;;9.90;9.10;;;15.20;60.70;;;;;;20448;6853;307802;-75
2023/05/02 07:28:48;;;;;;;9.50;8.90;;;15.90;58.00;;;;;;20461;6853;341025;-74
2023/05/02 07:31:13;;;;;;;8.40;7.90;;;15.80;57.90;;;;;;20668;6853;117330;-72
2023/05/02 07:33:40;;;;;;;9.18;8.68;;;15.90;58.20;;;;;;20469;6853;278709;-74
2023/05/02 07:36:06;;;;;;;8.90;8.30;;;16.10;57.60;;;;;;20681;6853;117983;-74
2023/05/02 07:38:32;;;;;;;9.48;8.88;;;16.10;57.40;;;;;;20450;6853;340655;-74
2023/05/02 07:40:58;;;;;;;8.83;8.23;;;16.20;55.50;;;;;;20662;6853;123493;-73
2023/05/02 07:43:23;;;;;;;8.37;7.87;;;16.10;56.70;;;;;;20670;6853;117322;-72
2023/05/02 07:45:49;;;;;;;9.80;9.10;;;15.90;56.80;;;;;;20470;6851;278760;-74
2023/05/02 07:48:14;;;;;;;9.68;9.07;;;16.00;55.40;;;;;;20450;6853;278854;-75
2023/05/02 07:50:41;;;;;;;8.57;7.97;;;16.20;55.50;;;;;;20671;6853;118224;-75
2023/05/02 07:53:06;;;;;;;9.60;8.80;;;16.10;55.10;;;;;;20462;6853;310817;-74
2023/05/02 07:55:32;;;;;;;9.97;9.27;;;16.20;54.70;;;;;;20448;6853;337700;-76
2023/05/02 07:57:58;;;;;;;10.37;9.57;;;16.40;54.20;;;;;;20443;6853;279940;-75
2023/05/02 08:00:23;;;;;;;10.13;9.30;;;16.60;53.90;;;;;;20437;6853;307482;-75
2023/05/02 08:02:49;;;;;;;17.23;15.77;;;16.90;53.30;;;;;;20475;6853;285738;-75
2023/05/02 08:05:15;;;;;;;10.43;9.67;;;16.90;53.30;;;;;;20446;6853;308773;-73
2023/05/02 08:07:41;;;;;;;10.10;9.37;;;17.00;53.10;;;;;;20713;6853;116560;-75
2023/05/02 08:10:07;;;;;;;11.90;11.00;;;16.80;53.90;;;;;;20452;6853;279154;-75
2023/05/02 08:12:32;;;;;;;10.93;10.30;;;16.70;53.30;;;;;;20420;6853;293733;-74
2023/05/02 08:14:57;;;;;;;10.07;9.37;;;16.80;52.90;;;;;;20450;6853;279233;-74
2023/05/02 08:17:23;;;;;;;10.60;9.82;;;17.00;52.60;;;;;;20669;6853;117825;-74
2023/05/02 08:19:49;;;;;;;10.63;9.77;;;16.80;53.40;;;;;;20678;6853;117792;-75
2023/05/02 08:22:14;;;;;;;12.68;11.88;;;16.50;54.40;;;;;;20433;6853;308435;-74
2023/05/02 08:24:41;;;;;;;11.27;10.57;;;16.40;54.90;;;;;;20668;6853;117743;-75
2023/05/02 08:27:06;;;;;;;10.67;10.03;;;16.40;54.90;;;;;;20657;6853;117503;-73
2023/05/02 08:29:32;;;;;;;13.13;12.25;;;16.30;55.50;;;;;;20452;6853;278519;-76
2023/05/02 08:31:57;;;;;;;11.30;10.50;;;16.40;54.50;;;;;;20668;6853;117538;-75
2023/05/02 08:34:23;;;;;;;14.70;13.70;;;16.40;55.10;;;;;;20436;6853;304682;-75
2023/05/02 08:36:48;;;;;;;12.32;11.43;;;16.50;53.40;;;;;;20674;6853;117856;-75
2023/05/02 08:39:15;;;;;;;13.77;12.67;;;16.40;55.30;;;;;;20675;6853;117485;-74
2023/05/02 08:41:40;;;;;;;14.77;13.53;;;16.40;55.30;;;;;;20661;6853;117592;-75
2023/05/02 08:44:09;;;;;;;15.87;14.67;;;16.20;55.80;;;;;;20679;6853;118033;-75
2023/05/02 08:46:36;;;;;;;20.07;18.57;;;16.40;54.60;;;;;;20437;6853;317309;-74
2023/05/02 08:49:03;;;;;;;41.63;35.60;;;16.40;54.60;;;;;;20667;6853;122016;-76
2023/05/02 08:51:31;;;;;;;17.83;16.40;;;16.30;55.50;;;;;;20655;6853;118102;-75
2023/05/02 08:53:55;;;;;;;19.50;18.00;;;16.30;55.50;;;;;;20452;6853;307352;-74
2023/05/02 08:56:20;;;;;;;21.30;19.80;;;16.50;53.50;;;;;;20441;6852;312107;-74
2023/05/02 08:58:46;;;;;;;20.03;18.23;;;16.90;52.80;;;;;;20667;6853;117444;-73
2023/05/02 09:01:14;;;;;;;19.63;18.13;;;16.80;53.20;;;;;;20632;6853;117901;-73
2023/05/02 09:03:40;;;;;;;20.90;19.37;;;16.70;54.20;;;;;;20342;6853;279219;-73
2023/05/02 09:06:09;;;;;;;23.33;21.47;;;16.90;53.10;;;;;;20450;6853;278408;-75
2023/05/02 09:08:35;;;;;;;22.37;20.77;;;17.60;51.20;;;;;;20362;6853;284326;-75
2023/05/02 09:11:03;;;;;;;20.57;18.97;;;17.60;51.20;;;;;;20624;6853;120441;-74
2023/05/02 09:13:50;;;;;;;23.30;21.50;;;17.80;50.00;;;;;;20445;6853;277852;-75
2023/05/02 09:16:15;;;;;;;20.17;18.50;;;17.80;50.00;;;;;;20628;6853;117806;-75
2023/05/02 09:18:41;;;;;;;23.00;21.20;;;17.80;51.50;;;;;;20426;6853;338301;-73
2023/05/02 09:21:18;;;;;;;20.33;18.83;;;18.00;50.40;;;;;;20642;6853;117823;-76
2023/05/02 09:23:56;;;;;;;22.07;20.47;;;18.10;51.10;;;;;;20174;6853;308244;-74
2023/05/02 09:26:32;;;;;;;20.70;19.10;;;18.30;49.20;;;;;;20657;6853;119301;-76
2023/05/02 09:28:53;;;;;;;19.90;18.20;;;18.30;50.70;;;;;;20647;6853;121806;-75
2023/05/02 09:31:19;;;;;;;21.47;19.53;;;18.30;51.80;;;;;;20667;6853;117608;-75
2023/05/02 09:33:45;;;;;;;23.53;21.63;;;18.20;52.20;;;;;;20455;6853;307479;-73
2023/05/02 09:36:12;;;;;;;19.53;18.13;;;18.30;48.90;;;;;;20677;6853;118082;-77
2023/05/02 09:38:36;;;;;;;20.73;19.12;;;18.30;50.00;;;;;;20665;6853;117789;-73
2023/05/02 09:41:03;;;;;;;20.58;18.92;;;18.00;51.30;;;;;;20666;6853;117519;-74
2023/05/02 09:43:28;;;;;;;24.00;22.20;;;18.00;51.30;;;;;;20472;6853;283549;-74
2023/05/02 09:46:00;;;;;;;21.60;19.73;;;18.20;49.00;;;;;;20673;6853;118069;-75
2023/05/02 09:48:26;;;;;;;20.57;18.97;;;18.30;50.10;;;;;;20653;6853;118302;-74
2023/05/02 09:50:51;;;;;;;19.20;17.40;;;18.20;51.10;;;;;;20667;6853;118219;-75
2023/05/02 09:53:17;;;;;;;17.20;15.70;;;18.10;51.70;;;;;;20656;6853;118283;-73
2023/05/02 09:55:42;;;;;;;17.93;16.63;;;18.20;52.40;;;;;;20456;6853;308354;-73
2023/05/02 09:58:21;;;;;;;18.60;17.30;;;18.60;50.30;;;;;;20486;6853;278567;-74
2023/05/02 10:00:47;;;;;;;18.05;16.62;;;19.40;48.60;;;;;;20492;6853;316056;-74
2023/05/02 10:03:13;;;;;;;18.00;16.70;;;19.40;48.60;;;;;;20664;6853;117630;-73
2023/05/02 10:05:39;;;;;;;19.95;18.52;;;19.40;49.20;;;;;;20478;6853;342011;-74
2023/05/02 10:08:04;;;;;;;18.23;16.83;;;19.40;48.00;;;;;;20688;6852;117706;-74
2023/05/02 10:10:30;;;;;;;19.83;18.17;;;19.40;49.00;;;;;;20463;6853;278803;-74
2023/05/02 10:12:56;;;;;;;18.17;16.77;;;19.40;49.60;;;;;;20689;6853;117825;-75
2023/05/02 10:15:22;;;;;;;17.70;16.57;;;19.30;49.40;;;;;;20484;6853;283473;-75
2023/05/02 10:17:47;;;;;;;20.00;18.50;;;19.40;48.60;;;;;;20478;6853;308687;-77
2023/05/02 10:20:15;;;;;;;19.62;18.23;;;19.60;48.10;;;;;;20471;6853;312220;-75
2023/05/02 10:22:38;;;;;;;18.73;17.33;;;19.70;46.80;;;;;;20455;6853;333170;-75
2023/05/02 10:25:05;;;;;;;16.83;15.43;;;19.90;47.70;;;;;;20704;6853;123307;-76
2023/05/02 10:27:30;;;;;;;17.87;16.67;;;19.90;45.60;;;;;;20479;6853;278773;-76
2023/05/02 10:29:56;;;;;;;19.00;17.70;;;19.90;45.60;;;;;;20477;6853;293298;-75
2023/05/02 10:32:22;;;;;;;19.30;17.92;;;20.10;45.80;;;;;;20456;6853;278518;-74
2023/05/02 10:34:48;;;;;;;16.67;15.27;;;20.50;47.10;;;;;;20695;6853;117673;-74
2023/05/02 10:37:13;;;;;;;17.92;16.83;;;20.40;47.00;;;;;;20480;6853;308547;-78
2023/05/02 10:39:39;;;;;;;17.55;16.45;;;20.60;46.60;;;;;;20468;6853;280478;-78
2023/05/02 10:42:05;;;;;;;17.30;15.90;;;20.90;44.30;;;;;;20680;6853;118049;-78
2023/05/02 10:44:37;;;;;;;16.47;15.37;;;20.80;45.30;;;;;;20678;6853;118650;-78
2023/05/02 10:47:20;;;;;;;18.25;16.83;;;20.40;44.90;;;;;;20477;6853;307543;-77
2023/05/02 10:49:53;;;;;;;17.87;16.40;;;20.40;44.90;;;;;;20564;6853;116957;-77
2023/05/02 10:52:32;;;;;;;17.30;16.00;;;20.20;46.30;;;;;;20672;6853;121933;-78
2023/05/02 10:55:17;;;;;;;17.98;16.67;;;19.90;46.80;;;;;;20450;6853;278268;-78
2023/05/02 10:57:59;;;;;;;17.77;16.43;;;20.00;44.10;;;;;;20691;6853;117617;-76
2023/05/02 11:00:24;;;;;;;17.85;16.45;;;19.80;45.50;;;;;;20466;6853;337749;-78
2023/05/02 11:02:50;;;;;;;17.60;16.37;;;19.90;44.40;;;;;;20695;6853;118513;-76
2023/05/02 11:05:16;;;;;;;17.30;15.90;;;19.80;45.80;;;;;;20669;6853;118498;-76
2023/05/02 11:07:41;;;;;;;17.67;16.27;;;19.50;46.40;;;;;;20458;6853;313003;-80
2023/05/02 11:10:16;;;;;;;19.23;17.87;;;19.70;44.80;;;;;;20482;6853;338259;-77
2023/05/02 11:12:49;;;;;;;18.65;17.35;;;20.30;42.80;;;;;;20471;6853;342349;-75
2023/05/02 11:15:28;;;;;;;16.87;15.57;;;20.30;42.80;;;;;;20697;6853;118020;-75
2023/05/02 11:18:01;;;;;;;17.70;16.50;;;20.10;44.40;;;;;;20483;6853;311943;-75
2023/05/02 11:20:26;;;;;;;17.00;15.80;;;20.30;44.10;;;;;;20671;6852;117833;-76
2023/05/02 11:22:52;;;;;;;16.12;14.93;;;20.40;45.60;;;;;;20690;6853;117707;-75
2023/05/02 11:25:29;;;;;;;17.70;16.40;;;20.50;46.50;;;;;;20474;6853;278587;-76
2023/05/02 11:27:55;;;;;;;15.80;14.70;;;20.70;43.50;;;;;;20626;6853;117424;-75
2023/05/02 11:30:37;;;;;;;15.50;14.43;;;20.80;45.10;;;;;;20682;6853;118422;-75
2023/05/02 11:33:03;;;;;;;16.98;15.80;;;20.70;41.50;;;;;;20476;6853;307905;-76
2023/05/02 11:35:30;;;;;;;17.03;15.73;;;20.60;42.90;;;;;;20691;6853;121741;-76
2023/05/02 11:37:55;;;;;;;18.00;16.80;;;20.60;42.90;;;;;;20443;6853;283363;-77
2023/05/02 11:40:21;;;;;;;17.63;16.33;;;20.60;41.30;;;;;;20435;6853;327783;-77
2023/05/02 11:42:46;;;;;;;17.47;15.80;;;20.70;41.00;;;;;;20698;6853;117755;-75
2023/05/02 11:45:12;;;;;;;18.20;16.90;;;20.50;42.50;;;;;;20478;6853;308425;-76
2023/05/02 11:47:38;;;;;;;18.93;17.53;;;20.40;42.40;;;;;;20479;6853;342414;-77
2023/05/02 11:50:04;;;;;;;19.40;17.90;;;20.40;42.40;;;;;;20470;6853;312052;-79
2023/05/02 11:52:30;;;;;;;17.37;16.03;;;20.50;42.30;;;;;;20680;6853;117917;-77
2023/05/02 11:54:57;;;;;;;16.80;15.50;;;20.20;43.30;;;;;;20683;6853;117901;-76
2023/05/02 11:57:22;;;;;;;16.53;15.27;;;19.80;44.20;;;;;;20700;6853;118042;-76
2023/05/02 11:59:51;;;;;;;18.08;16.75;;;19.40;45.00;;;;;;20460;6853;311825;-75
2023/05/02 12:02:16;;;;;;;16.43;15.10;;;19.50;44.10;;;;;;20679;6853;118051;-76
2023/05/02 12:04:44;;;;;;;16.00;14.82;;;19.50;45.30;;;;;;20700;6853;118853;-76
2023/05/02 12:07:08;;;;;;;17.37;15.97;;;19.40;46.20;;;;;;20465;6853;308327;-76
2023/05/02 12:09:33;;;;;;;16.20;15.00;;;19.60;44.70;;;;;;20698;6853;118445;-75
2023/05/02 12:11:59;;;;;;;16.33;15.18;;;19.70;45.90;;;;;;20482;6853;308623;-78
2023/05/02 12:14:32;;;;;;;14.83;13.73;;;20.00;44.40;;;;;;20678;6853;123961;-77
2023/05/02 12:16:56;;;;;;;15.27;13.73;;;20.20;45.30;;;;;;20693;6853;124221;-77
2023/05/02 12:19:22;;;;;;;16.23;15.13;;;20.20;45.60;;;;;;20480;6853;307908;-76
2023/05/02 12:21:47;;;;;;;14.13;13.13;;;20.30;42.60;;;;;;20695;6853;117564;-77
2023/05/02 12:24:13;;;;;;;15.90;14.40;;;20.40;43.60;;;;;;20670;6853;118095;-77
2023/05/02 12:26:38;;;;;;;14.53;13.43;;;20.20;44.40;;;;;;20691;6853;117702;-75